createdAt,value
2019-04-11T00:01:48.022Z,4.70
2019-04-11T00:04:15.718Z,3.40
2019-04-11T00:06:45.674Z,3.43
2019-04-11T00:09:17.180Z,3.63
2019-04-11T00:11:46.661Z,4.33
2019-04-11T00:14:16.215Z,3.07
2019-04-11T00:16:45.754Z,2.73
2019-04-11T00:19:15.608Z,4.70
2019-04-11T00:21:45.153Z,4.37
2019-04-11T00:24:14.637Z,3.80
2019-04-11T00:26:44.448Z,4.67
2019-04-11T00:29:14.365Z,3.77
2019-04-11T00:31:45.206Z,3.90
2019-04-11T00:34:15.153Z,4.07
2019-04-11T00:36:44.659Z,3.67
2019-04-11T00:39:15.260Z,3.90
2019-04-11T00:41:44.774Z,3.77
2019-04-11T00:44:14.682Z,3.37
2019-04-11T00:46:44.607Z,3.57
2019-04-11T00:49:14.431Z,4.03
2019-04-11T00:51:44.410Z,3.27
2019-04-11T00:54:14.247Z,3.63
2019-04-11T00:56:44.220Z,3.50
2019-04-11T00:59:14.159Z,3.60
2019-04-11T01:01:47.113Z,3.70
2019-04-11T01:04:17.868Z,4.70
2019-04-11T01:06:47.500Z,3.60
2019-04-11T01:09:17.939Z,3.80
2019-04-11T01:11:47.919Z,3.53
2019-04-11T01:14:17.541Z,3.53
2019-04-11T01:16:56.947Z,3.13
2019-04-11T01:19:26.885Z,3.40
2019-04-11T01:21:57.924Z,3.63
2019-04-11T01:24:28.219Z,3.67
2019-04-11T01:26:57.771Z,3.40
2019-04-11T01:29:27.344Z,3.90
2019-04-11T01:32:02.136Z,3.13
2019-04-11T01:34:32.811Z,2.47
2019-04-11T01:37:03.690Z,2.50
2019-04-11T01:39:59.229Z,3.07
2019-04-11T01:42:29.584Z,3.20
2019-04-11T01:44:59.098Z,3.13
2019-04-11T01:47:40.813Z,3.20
2019-04-11T01:50:11.102Z,2.97
2019-04-11T01:52:40.669Z,3.00
2019-04-11T01:55:10.413Z,3.23
2019-04-11T01:57:40.285Z,3.20
2019-04-11T02:00:12.293Z,3.17
2019-04-11T02:02:52.901Z,2.83
2019-04-11T02:05:30.048Z,2.90
2019-04-11T02:08:00.768Z,2.57
2019-04-11T02:10:30.199Z,2.80
2019-04-11T02:12:59.797Z,2.87
2019-04-11T02:15:30.362Z,2.90
2019-04-11T02:17:59.965Z,2.67
2019-04-11T02:20:29.462Z,2.57
2019-04-11T02:23:17.780Z,2.30
2019-04-11T02:26:05.052Z,2.77
2019-04-11T02:28:34.953Z,2.90
2019-04-11T02:31:05.407Z,2.93
2019-04-11T02:33:36.962Z,3.40
2019-04-11T02:36:07.904Z,2.90
2019-04-11T02:38:39.085Z,2.70
2019-04-11T02:41:10.258Z,2.67
2019-04-11T02:43:42.142Z,2.47
2019-04-11T02:46:22.009Z,2.40
2019-04-11T02:48:42.685Z,2.90
2019-04-11T02:51:12.524Z,2.47
2019-04-11T02:53:43.179Z,2.43
2019-04-11T02:56:12.939Z,2.80
2019-04-11T02:58:44.246Z,2.20
2019-04-11T03:01:15.565Z,2.50
2019-04-11T03:03:45.572Z,2.70
2019-04-11T03:06:15.366Z,1.80
2019-04-11T03:08:46.385Z,2.50
2019-04-11T03:11:16.769Z,2.00
2019-04-11T03:13:50.435Z,2.03
2019-04-11T03:16:32.735Z,2.90
2019-04-11T03:19:07.623Z,2.30
2019-04-11T03:21:24.084Z,2.97
2019-04-11T03:23:53.906Z,2.47
2019-04-11T03:26:24.916Z,2.30
2019-04-11T03:28:57.375Z,2.50
2019-04-11T03:32:03.464Z,2.00
2019-04-11T03:35:06.274Z,2.43
2019-04-11T03:39:21.593Z,2.30
2019-04-11T03:41:48.766Z,1.73
2019-04-11T03:44:13.452Z,2.00
2019-04-11T03:46:49.195Z,2.47
2019-04-11T03:49:22.618Z,2.70
2019-04-11T03:51:40.428Z,2.50
2019-04-11T03:54:11.601Z,1.83
2019-04-11T03:56:43.131Z,2.53
2019-04-11T03:59:16.120Z,2.70
2019-04-11T04:01:44.497Z,2.47
2019-04-11T04:04:16.885Z,2.10
2019-04-11T04:06:47.683Z,2.53
2019-04-11T04:09:19.178Z,2.60
2019-04-11T04:11:49.791Z,2.00
2019-04-11T04:14:46.777Z,2.90
2019-04-11T04:17:43.245Z,2.93
2019-04-11T04:20:30.899Z,3.20
2019-04-11T04:23:18.970Z,2.77
2019-04-11T04:25:49.362Z,2.83
2019-04-11T04:28:19.684Z,2.30
2019-04-11T04:30:51.714Z,2.70
2019-04-11T04:33:22.837Z,2.00
2019-04-11T04:35:52.717Z,2.77
2019-04-11T04:38:23.939Z,2.23
2019-04-11T04:41:10.010Z,2.23
2019-04-11T04:43:29.387Z,1.83
2019-04-11T04:46:20.367Z,2.40
2019-04-11T04:48:32.320Z,2.23
2019-04-11T04:51:07.541Z,2.30
2019-04-11T04:53:35.535Z,2.30
2019-04-11T04:56:06.588Z,2.50
2019-04-11T04:58:37.674Z,2.23
2019-04-11T05:01:07.853Z,2.60
2019-04-11T05:03:37.911Z,2.27
2019-04-11T05:06:07.750Z,2.20
2019-04-11T05:08:38.885Z,2.00
2019-04-11T05:11:08.707Z,2.87
2019-04-11T05:13:38.783Z,2.50
2019-04-11T05:16:17.243Z,2.63
2019-04-11T05:18:40.542Z,2.70
2019-04-11T05:21:10.755Z,2.67
2019-04-11T05:23:40.349Z,2.43
2019-04-11T05:26:10.748Z,2.40
2019-04-11T05:28:40.445Z,2.63
2019-04-11T05:31:10.226Z,2.90
2019-04-11T05:33:39.829Z,2.43
2019-04-11T05:36:09.335Z,3.13
2019-04-11T05:38:38.926Z,2.60
2019-04-11T05:41:12.146Z,2.47
2019-04-11T05:43:41.293Z,1.73
2019-04-11T05:46:26.092Z,2.77
2019-04-11T05:48:47.826Z,2.23
2019-04-11T05:51:21.229Z,3.57
2019-04-11T05:53:50.072Z,2.50
2019-04-11T05:56:23.716Z,2.90
2019-04-11T05:58:54.173Z,2.23
2019-04-11T06:01:30.904Z,3.07
2019-04-11T06:04:05.933Z,2.63
2019-04-11T06:06:56.576Z,3.27
2019-04-11T06:09:32.959Z,3.80
2019-04-11T06:12:12.047Z,3.63
2019-04-11T06:15:04.165Z,2.90
2019-04-11T06:17:34.326Z,3.33
2019-04-11T06:20:37.889Z,2.90
2019-04-11T06:23:27.470Z,3.10
2019-04-11T06:26:09.205Z,3.40
2019-04-11T06:28:40.274Z,3.77
2019-04-11T06:31:27.369Z,3.00
2019-04-11T06:34:02.862Z,3.50
2019-04-11T06:36:49.902Z,3.50
2019-04-11T06:39:41.378Z,3.60
2019-04-11T06:42:30.169Z,3.70
2019-04-11T06:45:33.815Z,3.00
2019-04-11T06:48:23.125Z,4.23
2019-04-11T06:51:18.231Z,4.07
2019-04-11T06:54:06.370Z,3.83
2019-04-11T06:56:41.252Z,4.20
2019-04-11T06:59:18.431Z,3.50
2019-04-11T07:01:47.921Z,3.70
2019-04-11T07:04:23.887Z,3.70
2019-04-11T07:06:55.790Z,2.83
2019-04-11T07:09:37.810Z,4.00
2019-04-11T07:12:13.384Z,2.43
2019-04-11T07:14:47.585Z,3.50
2019-04-11T07:17:36.862Z,3.27
2019-04-11T07:20:43.657Z,4.57
2019-04-11T07:23:31.197Z,4.40
2019-04-11T07:26:18.878Z,3.80
2019-04-11T07:29:10.201Z,4.07
2019-04-11T07:31:48.279Z,3.27
2019-04-11T07:34:39.189Z,4.07
2019-04-11T07:37:26.106Z,4.47
2019-04-11T07:40:24.275Z,4.10
2019-04-11T07:43:17.584Z,3.80
2019-04-11T07:46:25.707Z,4.00
2019-04-11T07:49:05.984Z,3.80
2019-04-11T07:51:42.992Z,3.67
2019-04-11T07:54:15.826Z,3.60
2019-04-11T07:57:08.360Z,4.10
2019-04-11T08:00:06.151Z,4.63
2019-04-11T08:02:53.546Z,3.50
2019-04-11T08:05:41.035Z,3.87
2019-04-11T08:08:19.002Z,4.30
2019-04-11T08:10:54.640Z,4.43
2019-04-11T08:13:28.899Z,4.30
2019-04-11T08:16:26.742Z,4.00
2019-04-11T08:19:15.270Z,3.93
2019-04-11T08:22:19.135Z,4.97
2019-04-11T08:25:13.514Z,4.07
2019-04-11T08:27:59.266Z,3.47
2019-04-11T08:30:25.132Z,3.60
2019-04-11T08:32:56.710Z,3.50
2019-04-11T08:35:55.278Z,3.80
2019-04-11T08:38:28.674Z,4.13
2019-04-11T08:41:23.294Z,3.83
2019-04-11T08:43:53.225Z,4.17
2019-04-11T08:46:35.131Z,4.83
2019-04-11T08:49:07.688Z,5.37
2019-04-11T08:51:37.255Z,4.90
2019-04-11T08:54:29.260Z,4.20
2019-04-11T08:56:59.098Z,3.97
2019-04-11T09:00:04.075Z,4.50
2019-04-11T09:02:40.907Z,4.50
2019-04-11T09:05:45.255Z,4.80
2019-04-11T09:08:32.258Z,4.40
2019-04-11T09:11:17.996Z,4.87
2019-04-11T09:14:09.456Z,4.35
2019-04-11T09:17:06.907Z,4.70
2019-04-11T09:20:13.663Z,4.70
2019-04-11T09:22:53.344Z,4.30
2019-04-11T09:25:43.316Z,4.55
2019-04-11T09:28:19.534Z,5.35
2019-04-11T09:31:17.114Z,4.62
2019-04-11T09:34:00.188Z,3.95
2019-04-11T09:37:07.377Z,3.80
2019-04-11T09:40:01.972Z,3.70
2019-04-11T09:43:05.742Z,4.67
2019-04-11T09:46:03.030Z,4.65
2019-04-11T09:48:51.496Z,5.03
2019-04-11T09:51:37.936Z,4.95
2019-04-11T09:54:12.119Z,4.25
2019-04-11T09:57:00.129Z,4.70
2019-04-11T09:59:36.983Z,4.70
2019-04-11T10:02:41.890Z,4.33
2019-04-11T10:05:13.696Z,3.90
2019-04-11T10:08:00.020Z,3.90
2019-04-11T10:10:40.377Z,4.35
2019-04-11T10:13:42.776Z,3.37
2019-04-11T10:16:46.628Z,3.80
2019-04-11T10:19:38.521Z,3.80
2019-04-11T10:22:29.903Z,3.60
2019-04-11T10:25:28.399Z,3.83
2019-04-11T10:28:19.719Z,4.47
2019-04-11T10:31:20.557Z,4.70
2019-04-11T10:34:14.865Z,3.90
2019-04-11T10:37:03.596Z,3.50
2019-04-11T10:39:55.034Z,4.33
2019-04-11T10:42:26.609Z,3.83
2019-04-11T10:45:22.668Z,4.23
2019-04-11T10:47:55.910Z,3.60
2019-04-11T10:50:44.484Z,3.20
2019-04-11T10:53:14.985Z,4.07
2019-04-11T10:56:10.676Z,3.60
2019-04-11T10:58:53.169Z,4.30
2019-04-11T11:01:48.497Z,3.30
2019-04-11T11:04:20.806Z,3.60
2019-04-11T11:06:53.866Z,2.93
2019-04-11T11:09:46.279Z,3.80
2019-04-11T11:12:50.034Z,3.20
2019-04-11T11:15:23.188Z,3.60
2019-04-11T11:18:38.120Z,3.93
2019-04-11T11:20:57.151Z,3.73
2019-04-11T11:23:58.990Z,3.60
2019-04-11T11:26:39.291Z,3.00
2019-04-11T11:29:45.827Z,3.27
2019-04-11T11:32:22.590Z,3.27
2019-04-11T11:35:29.732Z,3.00
2019-04-11T11:38:16.277Z,2.60
2019-04-11T11:41:20.669Z,3.00
2019-04-11T11:43:51.678Z,2.90
2019-04-11T11:46:50.069Z,2.90
2019-04-11T11:49:41.837Z,3.37
2019-04-11T11:52:34.185Z,3.30
2019-04-11T11:55:02.097Z,2.70
2019-04-11T11:57:37.087Z,2.60
2019-04-11T12:00:14.880Z,1.97
2019-04-11T12:02:51.968Z,2.23
2019-04-11T12:05:26.730Z,2.50
2019-04-11T12:08:02.069Z,2.40
2019-04-11T12:10:41.656Z,2.70
2019-04-11T12:13:45.608Z,2.57
2019-04-11T12:16:31.898Z,2.23
2019-04-11T12:19:42.669Z,2.03
2019-04-11T12:22:02.249Z,1.97
2019-04-11T12:24:46.210Z,2.23
2019-04-11T12:27:26.842Z,2.00
2019-04-11T12:30:23.902Z,2.10
2019-04-11T12:33:12.977Z,1.90
2019-04-11T12:36:07.666Z,1.17
2019-04-11T12:38:55.488Z,1.90
2019-04-11T12:41:33.985Z,1.83
2019-04-11T12:44:29.125Z,1.90
2019-04-11T12:47:18.109Z,2.40
2019-04-11T12:50:05.509Z,1.50
2019-04-11T12:53:00.014Z,1.70
2019-04-11T12:55:51.499Z,1.83
2019-04-11T12:58:51.877Z,1.77
2019-04-11T13:01:57.879Z,1.67
2019-04-11T13:04:37.807Z,1.70
2019-04-11T13:07:32.928Z,1.47
2019-04-11T13:10:24.051Z,1.30
2019-04-11T13:13:18.913Z,1.50
2019-04-11T13:16:12.193Z,1.30
2019-04-11T13:19:05.172Z,1.50
2019-04-11T13:21:47.461Z,1.40
2019-04-11T13:24:27.625Z,1.27
2019-04-11T13:27:11.325Z,1.40
2019-04-11T13:30:02.814Z,1.40
2019-04-11T13:32:51.864Z,0.90
2019-04-11T13:35:28.323Z,1.40
2019-04-11T13:38:18.656Z,1.20
2019-04-11T13:41:20.610Z,1.10
2019-04-11T13:43:56.334Z,1.20
2019-04-11T13:46:47.973Z,1.30
2019-04-11T13:49:34.449Z,1.50
2019-04-11T13:52:23.330Z,1.30
2019-04-11T13:55:26.980Z,1.53
2019-04-11T13:58:14.256Z,1.10
2019-04-11T14:00:51.432Z,1.20
2019-04-11T14:03:46.146Z,1.20
2019-04-11T14:06:21.057Z,0.70
2019-04-11T14:09:06.714Z,1.40
2019-04-11T14:11:38.101Z,1.00
2019-04-11T14:14:35.891Z,1.40
2019-04-11T14:17:36.646Z,1.30
2019-04-11T14:20:41.719Z,1.20
2019-04-11T14:23:47.463Z,1.30
2019-04-11T14:26:33.714Z,1.20
2019-04-11T14:29:34.289Z,1.30
2019-04-11T14:32:33.043Z,1.30
2019-04-11T14:35:22.712Z,1.30
2019-04-11T14:37:57.730Z,1.20
2019-04-11T14:40:45.930Z,1.10
2019-04-11T14:43:26.527Z,1.00
2019-04-11T14:46:23.834Z,1.30
2019-04-11T14:48:56.404Z,1.30
2019-04-11T14:51:50.603Z,1.23
2019-04-11T14:54:23.274Z,1.13
2019-04-11T14:57:24.167Z,1.60
2019-04-11T15:00:00.242Z,1.13
2019-04-11T15:02:47.663Z,1.10
2019-04-11T15:05:39.471Z,1.30
2019-04-11T15:08:10.928Z,1.30
2019-04-11T15:11:06.294Z,1.10
2019-04-11T15:13:35.865Z,1.10
2019-04-11T15:16:27.180Z,0.97
2019-04-11T15:19:01.791Z,2.13
2019-04-11T15:21:56.547Z,1.17
2019-04-11T15:24:26.030Z,1.10
2019-04-11T15:27:11.288Z,1.30
2019-04-11T15:29:45.472Z,1.23
2019-04-11T15:32:41.225Z,1.30
2019-04-11T15:35:13.154Z,1.50
2019-04-11T15:38:00.663Z,1.43
2019-04-11T15:40:55.374Z,1.10
2019-04-11T15:43:43.798Z,1.30
2019-04-11T15:46:24.903Z,1.50
2019-04-11T15:49:20.885Z,1.50
2019-04-11T15:51:46.835Z,1.17
2019-04-11T15:54:41.250Z,1.47
2019-04-11T15:57:42.650Z,1.23
2019-04-11T16:00:30.981Z,1.10
2019-04-11T16:03:20.857Z,1.20
2019-04-11T16:06:09.378Z,1.47
2019-04-11T16:08:50.637Z,1.30
2019-04-11T16:11:38.724Z,1.50
2019-04-11T16:14:10.893Z,0.83
2019-04-11T16:17:13.850Z,1.00
2019-04-11T16:19:47.582Z,1.03
2019-04-11T16:22:33.887Z,1.23
2019-04-11T16:25:06.531Z,1.10
2019-04-11T16:28:07.860Z,1.50
2019-04-11T16:30:40.703Z,1.73
2019-04-11T16:33:23.826Z,1.57
2019-04-11T16:35:58.965Z,1.50
2019-04-11T16:38:30.187Z,1.50
2019-04-11T16:41:17.558Z,1.67
2019-04-11T16:43:50.398Z,1.70
2019-04-11T16:46:37.748Z,1.77
2019-04-11T16:49:07.215Z,1.50
2019-04-11T16:51:36.743Z,1.53
2019-04-11T16:54:09.581Z,1.87
2019-04-11T16:56:37.411Z,1.33
2019-04-11T16:59:06.985Z,1.60
2019-04-11T17:01:36.483Z,1.67
2019-04-11T17:04:05.983Z,1.50
2019-04-11T17:06:55.352Z,1.73
2019-04-11T17:09:34.379Z,1.60
2019-04-11T17:12:03.896Z,1.67
2019-04-11T17:14:52.450Z,1.90
2019-04-11T17:17:21.968Z,2.07
2019-04-11T17:19:51.498Z,1.80
2019-04-11T17:22:21.077Z,1.70
2019-04-11T17:24:50.659Z,2.33
2019-04-11T17:27:20.930Z,3.57
2019-04-11T17:29:54.571Z,4.70
2019-04-11T17:32:23.629Z,4.30
2019-04-11T17:34:53.860Z,3.80
2019-04-11T17:37:23.563Z,5.63
2019-04-11T17:39:53.124Z,1.73
2019-04-11T17:42:22.793Z,3.60
2019-04-11T17:44:52.367Z,1.80
2019-04-11T17:47:26.795Z,2.10
2019-04-11T17:49:56.060Z,2.30
2019-04-11T17:52:25.808Z,2.13
2019-04-11T17:54:56.226Z,1.60
2019-04-11T17:57:27.083Z,1.57
2019-04-11T17:59:59.206Z,1.50
2019-04-11T18:02:28.804Z,1.80
2019-04-11T18:04:59.026Z,1.13
2019-04-11T18:07:29.054Z,2.27
2019-04-11T18:09:58.938Z,2.87
2019-04-11T18:12:28.791Z,3.80
2019-04-11T18:14:59.889Z,4.90
2019-04-11T18:17:29.952Z,3.80
2019-04-11T18:19:59.767Z,3.83
2019-04-11T18:22:29.632Z,3.60
2019-04-11T18:24:59.480Z,2.73
2019-04-11T18:27:29.337Z,2.80
2019-04-11T18:29:59.188Z,2.47
2019-04-11T18:32:29.034Z,1.80
2019-04-11T18:35:01.615Z,1.60
2019-04-11T18:37:32.108Z,1.53
2019-04-11T18:40:06.020Z,1.30
2019-04-11T18:42:33.137Z,1.40
2019-04-11T18:45:02.952Z,1.23
2019-04-11T18:47:32.919Z,1.37
2019-04-11T18:50:02.744Z,1.70
2019-04-11T18:52:32.708Z,1.50
2019-04-11T18:55:02.746Z,1.67
2019-04-11T18:57:32.677Z,1.37
2019-04-11T19:00:05.920Z,1.50
2019-04-11T19:02:33.870Z,1.50
2019-04-11T19:05:04.319Z,1.30
2019-04-11T19:07:34.153Z,1.70
2019-04-11T19:10:04.046Z,1.70
2019-04-11T19:12:34.038Z,1.70
2019-04-11T19:15:04.017Z,1.20
2019-04-11T19:17:33.948Z,1.53
2019-04-11T19:20:03.841Z,3.93
2019-04-11T19:22:37.534Z,5.20
2019-04-11T19:25:05.804Z,4.07
2019-04-11T19:27:35.688Z,3.20
2019-04-11T19:30:06.592Z,1.80
2019-04-11T19:32:36.428Z,1.80
2019-04-11T19:35:06.461Z,2.13
2019-04-11T19:37:36.324Z,1.97
2019-04-11T19:40:06.191Z,2.50
2019-04-11T19:42:36.086Z,2.23
2019-04-11T19:45:07.615Z,2.20
2019-04-11T19:47:37.457Z,2.10
2019-04-11T19:50:08.693Z,2.23
2019-04-11T19:52:45.106Z,2.10
2019-04-11T19:55:29.099Z,1.67
2019-04-11T19:57:59.058Z,2.13
2019-04-11T20:00:28.940Z,1.97
2019-04-11T20:02:58.848Z,1.70
2019-04-11T20:05:29.575Z,1.70
2019-04-11T20:07:59.419Z,2.53
2019-04-11T20:10:30.891Z,1.80
2019-04-11T20:13:01.986Z,1.53
2019-04-11T20:15:36.935Z,1.80
2019-04-11T20:18:03.551Z,1.70
2019-04-11T20:20:36.835Z,1.90
2019-04-11T20:23:04.969Z,2.00
2019-04-11T20:25:34.756Z,1.50
2019-04-11T20:28:04.654Z,1.40
2019-04-11T20:30:34.560Z,1.83
2019-04-11T20:33:04.467Z,1.67
2019-04-11T20:35:34.300Z,1.43
2019-04-11T20:38:04.168Z,1.57
2019-04-11T20:40:34.012Z,1.83
2019-04-11T20:43:03.842Z,1.63
2019-04-11T20:45:37.749Z,1.50
2019-04-11T20:48:07.584Z,1.30
2019-04-11T20:50:37.467Z,1.73
2019-04-11T20:53:12.623Z,1.43
2019-04-11T20:55:39.270Z,1.27
2019-04-11T20:58:10.356Z,1.40
2019-04-11T21:00:50.370Z,1.60
2019-04-11T21:03:12.198Z,1.43
2019-04-11T21:05:41.738Z,1.47
2019-04-11T21:08:11.274Z,1.23
2019-04-11T21:10:40.819Z,1.50
2019-04-11T21:13:10.365Z,1.30
2019-04-11T21:15:39.866Z,1.03
2019-04-11T21:18:09.382Z,1.93
2019-04-11T21:20:39.611Z,1.57
2019-04-11T21:23:09.177Z,1.40
2019-04-11T21:25:38.710Z,1.10
2019-04-11T21:28:08.199Z,1.70
2019-04-11T21:30:37.767Z,1.57
2019-04-11T21:33:07.266Z,1.80
2019-04-11T21:35:36.810Z,1.40
2019-04-11T21:38:06.331Z,1.37
2019-04-11T21:40:36.615Z,1.67
2019-04-11T21:43:06.803Z,1.67
2019-04-11T21:45:36.569Z,1.47
2019-04-11T21:48:06.954Z,1.70
2019-04-11T21:50:40.272Z,1.77
2019-04-11T21:53:07.799Z,1.83
2019-04-11T21:55:37.289Z,1.50
2019-04-11T21:58:06.838Z,1.70
2019-04-11T22:00:40.794Z,1.60
2019-04-11T22:03:10.896Z,2.40
2019-04-11T22:05:40.485Z,2.00
2019-04-11T22:08:10.075Z,1.50
2019-04-11T22:10:40.461Z,1.63
2019-04-11T22:13:10.841Z,2.03
2019-04-11T22:15:42.435Z,2.00
2019-04-11T22:18:15.817Z,1.87
2019-04-11T22:20:45.257Z,2.07
2019-04-11T22:23:13.897Z,1.60
2019-04-11T22:25:43.441Z,2.00
2019-04-11T22:28:12.915Z,1.73
2019-04-11T22:30:42.448Z,2.00
2019-04-11T22:33:21.506Z,1.90
2019-04-11T22:35:50.996Z,2.10
2019-04-11T22:38:20.543Z,1.30
2019-04-11T22:40:50.145Z,2.47
2019-04-11T22:43:24.407Z,2.20
2019-04-11T22:45:50.808Z,2.10
2019-04-11T22:48:20.314Z,2.20
2019-04-11T22:50:49.842Z,2.60
2019-04-11T22:53:19.345Z,2.20
2019-04-11T22:55:48.908Z,1.80
2019-04-11T22:58:18.509Z,2.10
2019-04-11T23:00:55.569Z,2.10
2019-04-11T23:03:47.018Z,2.00
2019-04-11T23:06:20.626Z,2.10
2019-04-11T23:08:54.046Z,1.50
2019-04-11T23:11:23.566Z,1.70
2019-04-11T23:13:53.163Z,2.20
2019-04-11T23:16:22.847Z,2.53
2019-04-11T23:18:52.461Z,2.20
2019-04-11T23:21:22.106Z,2.33
2019-04-11T23:23:51.705Z,2.83
2019-04-11T23:26:21.245Z,2.27
2019-04-11T23:28:50.699Z,2.40
2019-04-11T23:31:21.045Z,2.47
2019-04-11T23:33:52.023Z,2.73
2019-04-11T23:36:21.970Z,2.40
2019-04-11T23:38:52.655Z,2.10
2019-04-11T23:41:23.046Z,2.23
2019-04-11T23:43:52.679Z,2.07
2019-04-11T23:46:22.205Z,2.10
2019-04-11T23:48:54.676Z,2.27
2019-04-11T23:51:25.423Z,2.50
2019-04-11T23:53:54.236Z,2.33
2019-04-11T23:56:25.221Z,2.17
2019-04-11T23:58:54.751Z,2.33
